Time;durP1;ratioP1;P1;durP2;ratioP2;P2;SDS_P1;SDS_P2;PMS_P1;PMS_P2;Temp;Humidity;BMP_temperature;BMP_pressure;BME280_temperature;BME280_humidity;BME280_pressure;Samples;Min_cycle;Max_cycle;Signal;HPM_P1;HPM_P2
2022/07/29 00:01:56;;;;;;;9.30;2.60;;;;;;;;;;5090959;28;20546;-78
2022/07/29 00:04:22;;;;;;;7.57;2.72;;;;;;;;;;5085208;28;20048;-77
2022/07/29 00:06:49;;;;;;;6.22;2.70;;;;;;;;;;5087357;28;20056;-76
2022/07/29 00:09:15;;;;;;;6.18;2.58;;;;;;;;;;5089865;28;20095;-78
2022/07/29 00:11:41;;;;;;;7.70;2.90;;;;;;;;;;5083838;28;20043;-77
2022/07/29 00:14:07;;;;;;;5.80;2.70;;;;;;;;;;5086846;28;20044;-77
2022/07/29 00:16:33;;;;;;;9.73;2.72;;;;;;;;;;5094424;28;20395;-76
2022/07/29 00:18:59;;;;;;;10.00;3.10;;;;;;;;;;5088268;28;20028;-76
2022/07/29 00:21:25;;;;;;;10.82;3.42;;;;;;;;;;5088217;28;22015;-77
2022/07/29 00:23:51;;;;;;;9.88;3.75;;;;;;;;;;5088232;28;20082;-77
2022/07/29 00:26:18;;;;;;;5.28;2.70;;;;;;;;;;5088638;28;20209;-77
2022/07/29 00:28:44;;;;;;;6.18;2.95;;;;;;;;;;5081984;28;20535;-77
2022/07/29 00:31:10;;;;;;;7.93;2.85;;;;;;;;;;5079770;28;20072;-77
2022/07/29 00:33:36;;;;;;;12.32;3.30;;;;;;;;;;5083971;28;20072;-77
2022/07/29 00:36:03;;;;;;;5.32;2.97;;;;;;;;;;5086366;28;22029;-77
2022/07/29 00:38:29;;;;;;;7.65;3.70;;;;;;;;;;5086746;28;20146;-77
2022/07/29 00:40:55;;;;;;;6.03;2.90;;;;;;;;;;5090727;28;20020;-77
2022/07/29 00:43:21;;;;;;;7.38;2.85;;;;;;;;;;5090351;28;20032;-77
2022/07/29 00:45:47;;;;;;;5.68;2.95;;;;;;;;;;5074475;28;20020;-77
2022/07/29 00:48:13;;;;;;;6.72;2.53;;;;;;;;;;5087967;28;20626;-77
2022/07/29 00:50:39;;;;;;;6.07;2.33;;;;;;;;;;5090199;28;20075;-77
2022/07/29 00:53:06;;;;;;;5.82;2.15;;;;;;;;;;5087288;28;20564;-77
2022/07/29 00:55:33;;;;;;;7.28;2.65;;;;;;;;;;5086078;28;20043;-77
2022/07/29 00:57:59;;;;;;;6.38;2.47;;;;;;;;;;5086216;28;20441;-76
2022/07/29 01:00:26;;;;;;;8.32;3.17;;;;;;;;;;5069135;28;20030;-76
2022/07/29 01:02:53;;;;;;;4.22;2.63;;;;;;;;;;5085331;28;20035;-77
2022/07/29 01:05:20;;;;;;;5.88;2.70;;;;;;;;;;5083434;28;20434;-76
2022/07/29 01:07:47;;;;;;;5.97;2.95;;;;;;;;;;5085435;28;20059;-79
2022/07/29 01:10:15;;;;;;;11.25;3.85;;;;;;;;;;5068755;28;20154;-75
2022/07/29 01:12:41;;;;;;;8.35;3.00;;;;;;;;;;5085870;28;20028;-74
2022/07/29 01:15:08;;;;;;;7.57;3.00;;;;;;;;;;5083539;28;20052;-74
2022/07/29 01:17:40;;;;;;;5.22;2.65;;;;;;;;;;5092389;28;20032;-74
2022/07/29 01:20:10;;;;;;;6.20;3.20;;;;;;;;;;5082220;28;20031;-75
2022/07/29 01:22:54;;;;;;;5.30;2.60;;;;;;;;;;5086654;28;20060;-74
2022/07/29 01:25:45;;;;;;;5.03;3.15;;;;;;;;;;5085726;28;20043;-74
2022/07/29 01:28:14;;;;;;;7.45;3.10;;;;;;;;;;5087686;28;20024;-74
2022/07/29 01:30:42;;;;;;;8.95;3.13;;;;;;;;;;5084680;28;20112;-74
2022/07/29 01:33:48;;;;;;;5.68;2.65;;;;;;;;;;5082317;28;20032;-75
2022/07/29 01:35:59;;;;;;;6.47;2.90;;;;;;;;;;5079810;28;20368;-74
2022/07/29 01:38:26;;;;;;;5.80;2.92;;;;;;;;;;5090533;28;20020;-77
2022/07/29 01:41:03;;;;;;;9.55;3.13;;;;;;;;;;5088457;28;20024;-77
2022/07/29 01:43:36;;;;;;;8.65;3.20;;;;;;;;;;5093514;28;20032;-77
2022/07/29 01:46:06;;;;;;;7.63;2.95;;;;;;;;;;5088941;28;20042;-76
2022/07/29 01:48:35;;;;;;;9.82;2.78;;;;;;;;;;5092585;28;20067;-77
2022/07/29 01:51:26;;;;;;;5.50;3.10;;;;;;;;;;5091020;28;20620;-76
2022/07/29 01:54:13;;;;;;;5.40;2.70;;;;;;;;;;5082164;28;20052;-77
2022/07/29 01:56:39;;;;;;;7.18;3.03;;;;;;;;;;5087280;28;20032;-76
2022/07/29 01:59:07;;;;;;;7.45;2.65;;;;;;;;;;5087990;28;20035;-77
2022/07/29 02:01:33;;;;;;;7.32;3.15;;;;;;;;;;5090501;28;20032;-76
2022/07/29 02:04:00;;;;;;;5.35;2.80;;;;;;;;;;5091546;28;20032;-77
2022/07/29 02:06:28;;;;;;;3.95;2.58;;;;;;;;;;5087498;28;20388;-77
2022/07/29 02:08:55;;;;;;;5.03;2.80;;;;;;;;;;5081477;28;20028;-76
2022/07/29 02:11:21;;;;;;;4.72;2.47;;;;;;;;;;5091690;28;20032;-77
2022/07/29 02:13:48;;;;;;;4.00;2.70;;;;;;;;;;5092502;28;20116;-76
2022/07/29 02:16:15;;;;;;;5.13;2.50;;;;;;;;;;5086605;28;20036;-77
2022/07/29 02:18:43;;;;;;;5.80;2.22;;;;;;;;;;5092477;28;20065;-79
2022/07/29 02:21:10;;;;;;;6.03;2.60;;;;;;;;;;5090526;28;20086;-79
2022/07/29 02:23:38;;;;;;;9.75;2.67;;;;;;;;;;5091650;28;20110;-79
2022/07/29 02:26:04;;;;;;;7.68;2.63;;;;;;;;;;5088264;28;20534;-78
2022/07/29 02:28:31;;;;;;;5.43;2.50;;;;;;;;;;5092563;28;20020;-79
2022/07/29 02:31:00;;;;;;;5.45;3.03;;;;;;;;;;5087967;28;20361;-79
2022/07/29 02:33:26;;;;;;;7.55;2.70;;;;;;;;;;5073141;28;20070;-77
2022/07/29 02:35:52;;;;;;;2.67;2.33;;;;;;;;;;5070537;28;20381;-76
2022/07/29 02:41:14;;;;;;;6.85;2.78;;;;;;;;;;5093621;28;20059;-76
2022/07/29 02:43:41;;;;;;;2.92;2.30;;;;;;;;;;5091830;28;20035;-75
2022/07/29 02:46:11;;;;;;;6.90;3.22;;;;;;;;;;5085701;28;20039;-75
2022/07/29 02:48:48;;;;;;;5.05;2.30;;;;;;;;;;5090572;28;20034;-75
2022/07/29 02:51:19;;;;;;;7.70;3.33;;;;;;;;;;5088980;28;20060;-76
2022/07/29 02:53:49;;;;;;;7.95;3.00;;;;;;;;;;5087958;28;20476;-80
2022/07/29 02:56:16;;;;;;;8.63;2.50;;;;;;;;;;5090119;28;20028;-80
2022/07/29 02:58:50;;;;;;;8.57;2.80;;;;;;;;;;5089492;28;20434;-80
2022/07/29 03:01:19;;;;;;;3.90;2.50;;;;;;;;;;5067415;28;20047;-79
2022/07/29 03:03:46;;;;;;;5.22;2.60;;;;;;;;;;5090506;28;20032;-77
2022/07/29 03:06:15;;;;;;;7.53;2.80;;;;;;;;;;5090019;28;20043;-76
2022/07/29 03:08:56;;;;;;;4.25;2.75;;;;;;;;;;5087261;28;20094;-76
2022/07/29 03:11:24;;;;;;;8.98;2.50;;;;;;;;;;5080855;28;20110;-76
2022/07/29 03:13:50;;;;;;;6.03;2.40;;;;;;;;;;5083688;28;20460;-76
2022/07/29 03:16:16;;;;;;;6.80;2.75;;;;;;;;;;5054900;28;20036;-76
2022/07/29 03:18:43;;;;;;;7.60;2.85;;;;;;;;;;5086154;28;20028;-76
2022/07/29 03:21:09;;;;;;;5.28;2.55;;;;;;;;;;5086751;28;20017;-76
2022/07/29 03:23:35;;;;;;;5.47;3.20;;;;;;;;;;5092463;28;20126;-76
2022/07/29 03:26:01;;;;;;;7.78;2.90;;;;;;;;;;5089818;28;20032;-76
2022/07/29 03:28:27;;;;;;;6.97;2.60;;;;;;;;;;5088677;28;20073;-76
2022/07/29 03:30:53;;;;;;;6.30;2.88;;;;;;;;;;5087449;28;20047;-79
2022/07/29 03:33:20;;;;;;;4.00;3.30;;;;;;;;;;5089231;28;20048;-79
2022/07/29 03:35:46;;;;;;;5.20;2.80;;;;;;;;;;5069722;28;20028;-79
2022/07/29 03:38:12;;;;;;;7.40;2.97;;;;;;;;;;5087997;28;20103;-80
2022/07/29 03:40:43;;;;;;;5.18;2.53;;;;;;;;;;5087710;28;20042;-80
2022/07/29 03:43:10;;;;;;;4.85;2.38;;;;;;;;;;5090375;28;20134;-79
2022/07/29 03:45:37;;;;;;;4.20;2.30;;;;;;;;;;5090917;28;20032;-79
2022/07/29 03:48:07;;;;;;;3.83;2.40;;;;;;;;;;5088717;28;20016;-80
2022/07/29 03:50:34;;;;;;;11.90;2.50;;;;;;;;;;5089324;28;20046;-75
2022/07/29 03:53:01;;;;;;;3.22;2.40;;;;;;;;;;5087645;28;20047;-74
2022/07/29 03:55:28;;;;;;;5.38;2.60;;;;;;;;;;5068491;28;20062;-76
2022/07/29 03:57:56;;;;;;;6.88;2.60;;;;;;;;;;5086629;28;20024;-76
2022/07/29 04:00:23;;;;;;;3.88;2.08;;;;;;;;;;5087600;28;20396;-76
2022/07/29 04:02:50;;;;;;;5.80;2.42;;;;;;;;;;5083536;28;20025;-77
2022/07/29 04:05:17;;;;;;;5.40;3.28;;;;;;;;;;5086829;28;20028;-77
2022/07/29 04:07:47;;;;;;;6.70;2.72;;;;;;;;;;5092892;28;20498;-77
2022/07/29 04:10:15;;;;;;;5.45;2.65;;;;;;;;;;5088116;28;20111;-79
2022/07/29 04:12:41;;;;;;;6.80;3.35;;;;;;;;;;5085437;28;20031;-80
2022/07/29 04:15:08;;;;;;;4.65;2.65;;;;;;;;;;5084587;28;20088;-80
2022/07/29 04:17:34;;;;;;;9.10;3.03;;;;;;;;;;5087142;28;20024;-78
2022/07/29 04:20:00;;;;;;;6.28;2.45;;;;;;;;;;5069857;28;20082;-77
2022/07/29 04:22:26;;;;;;;8.68;2.50;;;;;;;;;;5086604;28;20499;-78
2022/07/29 04:24:52;;;;;;;3.28;2.03;;;;;;;;;;5088469;28;20035;-78
2022/07/29 04:27:18;;;;;;;7.65;2.58;;;;;;;;;;5084420;28;20061;-78
2022/07/29 04:29:44;;;;;;;5.47;2.80;;;;;;;;;;5089563;28;20032;-77
2022/07/29 04:32:10;;;;;;;5.53;2.40;;;;;;;;;;5085476;28;20062;-77
2022/07/29 04:34:36;;;;;;;4.25;2.53;;;;;;;;;;5069624;28;20109;-73
2022/07/29 04:37:03;;;;;;;7.10;2.42;;;;;;;;;;5072396;28;20510;-73
2022/07/29 04:39:29;;;;;;;6.70;2.35;;;;;;;;;;5086973;28;20031;-77
2022/07/29 04:41:55;;;;;;;11.25;2.88;;;;;;;;;;5067132;28;20472;-76
2022/07/29 04:44:21;;;;;;;4.28;2.47;;;;;;;;;;5074304;28;20032;-75
2022/07/29 04:46:48;;;;;;;3.63;2.70;;;;;;;;;;5086538;28;20381;-74
2022/07/29 04:49:14;;;;;;;8.10;2.67;;;;;;;;;;5087631;28;20024;-74
2022/07/29 04:51:40;;;;;;;6.75;2.70;;;;;;;;;;5087842;28;20197;-75
2022/07/29 04:54:06;;;;;;;5.95;2.90;;;;;;;;;;5088284;28;20438;-74
2022/07/29 04:56:32;;;;;;;7.60;2.53;;;;;;;;;;5085151;28;20020;-75
2022/07/29 04:58:58;;;;;;;6.18;2.67;;;;;;;;;;5080303;28;20089;-75
2022/07/29 05:01:25;;;;;;;4.57;3.10;;;;;;;;;;5081987;28;20086;-75
2022/07/29 05:03:51;;;;;;;4.60;2.70;;;;;;;;;;5089693;28;20369;-75
2022/07/29 05:06:17;;;;;;;9.23;2.97;;;;;;;;;;5089288;28;20055;-76
2022/07/29 05:08:43;;;;;;;3.88;2.45;;;;;;;;;;5084393;28;20028;-76
2022/07/29 05:11:09;;;;;;;8.93;2.97;;;;;;;;;;5088951;28;20106;-74
2022/07/29 05:13:35;;;;;;;7.57;3.03;;;;;;;;;;5080574;28;20484;-74
2022/07/29 05:16:02;;;;;;;5.18;2.67;;;;;;;;;;5081959;28;20050;-74
2022/07/29 05:18:28;;;;;;;5.28;2.80;;;;;;;;;;5085767;28;20020;-74
2022/07/29 05:20:54;;;;;;;8.45;2.85;;;;;;;;;;5089859;28;20055;-74
2022/07/29 05:23:20;;;;;;;7.30;3.08;;;;;;;;;;5085076;28;20377;-74
2022/07/29 05:25:46;;;;;;;7.82;3.40;;;;;;;;;;5087270;28;20016;-76
2022/07/29 05:28:13;;;;;;;6.13;3.10;;;;;;;;;;5086860;28;20059;-77
2022/07/29 05:30:39;;;;;;;6.60;3.38;;;;;;;;;;5084669;28;20024;-71
2022/07/29 05:33:05;;;;;;;6.65;3.38;;;;;;;;;;5086832;28;20020;-76
2022/07/29 05:35:32;;;;;;;7.28;3.30;;;;;;;;;;5055980;28;20119;-67
2022/07/29 05:37:58;;;;;;;10.48;3.90;;;;;;;;;;5061330;28;20017;-70
2022/07/29 05:40:24;;;;;;;10.65;3.42;;;;;;;;;;5067189;28;20032;-67
2022/07/29 05:42:50;;;;;;;8.32;3.50;;;;;;;;;;5089355;28;20023;-67
2022/07/29 05:45:16;;;;;;;13.43;4.20;;;;;;;;;;5085583;28;20404;-66
2022/07/29 05:47:42;;;;;;;9.32;3.78;;;;;;;;;;5084576;28;20064;-67
2022/07/29 05:50:09;;;;;;;7.60;3.30;;;;;;;;;;5084435;28;20030;-66
2022/07/29 05:52:35;;;;;;;10.18;3.80;;;;;;;;;;5090642;28;20031;-67
2022/07/29 05:55:04;;;;;;;18.45;3.42;;;;;;;;;;5082567;28;20035;-66
2022/07/29 05:57:30;;;;;;;5.38;3.15;;;;;;;;;;5070398;28;20078;-67
2022/07/29 05:59:56;;;;;;;6.30;3.42;;;;;;;;;;5087789;28;20028;-67
2022/07/29 06:02:22;;;;;;;6.80;3.03;;;;;;;;;;5086755;28;20598;-67
2022/07/29 06:04:49;;;;;;;9.15;3.95;;;;;;;;;;5071505;28;20036;-67
2022/07/29 06:07:16;;;;;;;5.85;3.03;;;;;;;;;;5083527;28;20016;-67
2022/07/29 06:09:42;;;;;;;6.82;3.20;;;;;;;;;;5085235;28;20062;-67
2022/07/29 06:12:08;;;;;;;8.45;3.05;;;;;;;;;;5092306;28;20114;-67
2022/07/29 06:14:35;;;;;;;4.53;3.10;;;;;;;;;;5086124;28;20074;-67
2022/07/29 06:17:01;;;;;;;6.57;4.13;;;;;;;;;;5081881;28;20484;-66
2022/07/29 06:19:27;;;;;;;7.72;4.75;;;;;;;;;;5084484;28;20031;-67
2022/07/29 06:21:53;;;;;;;10.15;4.15;;;;;;;;;;5089727;28;20028;-66
2022/07/29 06:24:19;;;;;;;9.85;4.57;;;;;;;;;;5089900;28;20368;-67
2022/07/29 06:26:45;;;;;;;10.10;4.22;;;;;;;;;;5089819;28;20058;-67
2022/07/29 06:29:12;;;;;;;13.60;4.95;;;;;;;;;;5092151;28;20039;-67
2022/07/29 06:31:38;;;;;;;9.80;4.50;;;;;;;;;;5089448;28;20021;-67
2022/07/29 06:34:05;;;;;;;10.05;5.72;;;;;;;;;;5089458;28;20548;-67
2022/07/29 06:36:31;;;;;;;11.65;4.93;;;;;;;;;;5090693;28;20396;-67
2022/07/29 06:38:57;;;;;;;8.40;4.75;;;;;;;;;;5091699;28;20024;-67
2022/07/29 06:41:23;;;;;;;12.48;4.13;;;;;;;;;;5088347;28;20110;-66
2022/07/29 06:43:51;;;;;;;9.55;3.35;;;;;;;;;;5091940;28;20154;-66
2022/07/29 06:46:17;;;;;;;7.28;3.65;;;;;;;;;;5069735;28;20028;-66
2022/07/29 06:48:44;;;;;;;7.28;2.88;;;;;;;;;;5087019;28;20021;-66
2022/07/29 06:51:13;;;;;;;8.43;2.47;;;;;;;;;;5090457;28;20027;-66
2022/07/29 06:53:40;;;;;;;7.43;3.00;;;;;;;;;;5085809;28;20024;-66
2022/07/29 06:56:08;;;;;;;7.50;2.67;;;;;;;;;;5084775;28;20020;-66
2022/07/29 06:58:35;;;;;;;8.98;3.13;;;;;;;;;;5087773;28;20039;-66
2022/07/29 07:01:02;;;;;;;7.53;2.50;;;;;;;;;;5088548;28;20060;-67
2022/07/29 07:03:28;;;;;;;7.70;2.28;;;;;;;;;;5090496;28;20472;-66
2022/07/29 07:05:54;;;;;;;9.85;2.38;;;;;;;;;;5090400;28;20051;-66
2022/07/29 07:08:21;;;;;;;7.22;2.20;;;;;;;;;;5086153;28;20024;-67
2022/07/29 07:10:48;;;;;;;5.75;2.47;;;;;;;;;;5091239;28;20070;-67
2022/07/29 07:13:16;;;;;;;5.95;2.28;;;;;;;;;;5083494;28;20028;-67
2022/07/29 07:15:43;;;;;;;5.13;2.15;;;;;;;;;;5084275;28;20050;-67
2022/07/29 07:18:09;;;;;;;3.08;1.88;;;;;;;;;;5083476;28;20115;-67
2022/07/29 07:20:35;;;;;;;6.90;2.38;;;;;;;;;;5088859;28;20433;-67
2022/07/29 07:23:02;;;;;;;9.82;2.33;;;;;;;;;;5080291;28;20024;-67
2022/07/29 07:25:28;;;;;;;8.55;2.45;;;;;;;;;;5090142;28;20060;-67
2022/07/29 07:27:54;;;;;;;6.13;2.42;;;;;;;;;;5089551;28;20514;-67
2022/07/29 07:30:21;;;;;;;10.70;2.38;;;;;;;;;;5090671;28;20484;-67
2022/07/29 07:32:47;;;;;;;6.60;2.42;;;;;;;;;;5085353;28;20279;-67
2022/07/29 07:35:13;;;;;;;4.93;2.22;;;;;;;;;;5083460;28;20107;-67
2022/07/29 07:37:42;;;;;;;5.05;2.53;;;;;;;;;;5088240;28;20036;-67
2022/07/29 07:40:11;;;;;;;9.80;2.60;;;;;;;;;;5087454;28;20039;-67
2022/07/29 07:42:37;;;;;;;8.55;2.55;;;;;;;;;;5087313;28;20052;-66
2022/07/29 07:45:05;;;;;;;5.78;2.67;;;;;;;;;;5082115;28;20097;-66
2022/07/29 07:47:32;;;;;;;5.13;2.40;;;;;;;;;;5084535;28;20086;-66
2022/07/29 07:49:58;;;;;;;7.03;3.08;;;;;;;;;;5087494;28;20051;-67
2022/07/29 07:52:24;;;;;;;6.05;2.20;;;;;;;;;;5089328;28;20031;-67
2022/07/29 07:54:50;;;;;;;8.30;2.50;;;;;;;;;;5083116;28;20117;-67
2022/07/29 07:57:16;;;;;;;5.47;2.40;;;;;;;;;;5085623;28;20152;-67
2022/07/29 07:59:42;;;;;;;9.07;3.17;;;;;;;;;;5086632;28;20385;-67
2022/07/29 08:02:09;;;;;;;5.45;2.47;;;;;;;;;;5085885;28;20035;-67
2022/07/29 08:04:35;;;;;;;5.72;1.95;;;;;;;;;;5079218;28;20499;-67
2022/07/29 08:07:02;;;;;;;5.45;2.70;;;;;;;;;;5081700;28;20395;-67
2022/07/29 08:09:29;;;;;;;5.63;2.83;;;;;;;;;;5084705;28;20495;-67
2022/07/29 08:11:55;;;;;;;5.72;2.30;;;;;;;;;;5081960;28;20060;-67
2022/07/29 08:14:21;;;;;;;7.90;3.10;;;;;;;;;;5086214;28;20404;-67
2022/07/29 08:16:47;;;;;;;7.70;2.17;;;;;;;;;;5079882;28;20085;-74
2022/07/29 08:19:13;;;;;;;8.82;2.40;;;;;;;;;;5086418;28;20024;-74
2022/07/29 08:21:40;;;;;;;12.48;3.10;;;;;;;;;;5090024;28;20050;-75
2022/07/29 08:26:51;;;;;;;9.55;4.00;;;;;;;;;;5091683;28;20042;-73
2022/07/29 08:29:17;;;;;;;11.00;4.22;;;;;;;;;;5081345;28;20036;-73
2022/07/29 08:31:43;;;;;;;8.88;4.47;;;;;;;;;;5090068;28;20032;-74
2022/07/29 08:34:09;;;;;;;7.90;4.68;;;;;;;;;;5079898;28;20036;-75
2022/07/29 08:36:36;;;;;;;10.63;4.57;;;;;;;;;;5085736;28;20082;-75
2022/07/29 08:39:03;;;;;;;7.78;4.07;;;;;;;;;;5082836;28;20040;-74
2022/07/29 08:41:30;;;;;;;9.75;3.50;;;;;;;;;;5055820;28;20114;-75
2022/07/29 08:43:56;;;;;;;9.65;4.32;;;;;;;;;;5080167;28;20056;-75
2022/07/29 08:46:22;;;;;;;7.10;4.60;;;;;;;;;;5092400;28;20118;-75
2022/07/29 08:48:49;;;;;;;8.82;4.63;;;;;;;;;;5091281;28;20053;-74
2022/07/29 08:51:16;;;;;;;7.50;3.78;;;;;;;;;;5089750;28;20390;-74
2022/07/29 08:53:43;;;;;;;7.65;3.47;;;;;;;;;;5083571;28;20115;-75
2022/07/29 08:56:13;;;;;;;8.73;3.83;;;;;;;;;;5090965;28;20484;-74
2022/07/29 08:58:40;;;;;;;8.95;3.60;;;;;;;;;;5085433;28;20050;-75
2022/07/29 09:01:06;;;;;;;8.00;4.20;;;;;;;;;;5080994;28;20024;-74
2022/07/29 09:03:34;;;;;;;7.85;3.35;;;;;;;;;;5082022;28;20024;-74
2022/07/29 09:06:01;;;;;;;8.27;3.38;;;;;;;;;;5082802;28;20119;-75
2022/07/29 09:08:28;;;;;;;5.90;2.85;;;;;;;;;;5085233;28;20400;-74
2022/07/29 09:10:58;;;;;;;8.75;3.15;;;;;;;;;;5081532;28;20110;-74
2022/07/29 09:13:24;;;;;;;8.93;3.05;;;;;;;;;;5075261;28;20020;-74
2022/07/29 09:15:50;;;;;;;10.65;3.08;;;;;;;;;;5084760;28;20040;-74
2022/07/29 09:18:36;;;;;;;6.68;3.00;;;;;;;;;;5081417;28;20032;-74
2022/07/29 09:24:07;;;;;;;11.60;2.97;;;;;;;;;;5079591;28;20024;-74
2022/07/29 09:26:39;;;;;;;7.53;3.60;;;;;;;;;;5066211;28;20033;-74
2022/07/29 09:29:14;;;;;;;8.75;2.75;;;;;;;;;;5080409;28;20031;-74
2022/07/29 09:31:42;;;;;;;5.97;3.15;;;;;;;;;;5079627;28;20775;-74
2022/07/29 09:34:08;;;;;;;7.38;2.97;;;;;;;;;;5082099;28;20024;-67
2022/07/29 09:36:42;;;;;;;11.23;3.35;;;;;;;;;;5080687;28;20095;-67
2022/07/29 09:39:08;;;;;;;4.82;2.25;;;;;;;;;;5083155;28;20024;-67
2022/07/29 09:41:53;;;;;;;7.95;2.58;;;;;;;;;;5087897;28;20495;-67
2022/07/29 09:44:20;;;;;;;8.82;2.13;;;;;;;;;;5084198;28;20575;-67
2022/07/29 09:47:05;;;;;;;7.25;2.50;;;;;;;;;;5086338;28;20042;-67
2022/07/29 09:49:33;;;;;;;8.43;2.10;;;;;;;;;;5085385;28;20036;-67
2022/07/29 09:52:09;;;;;;;8.10;2.38;;;;;;;;;;5075208;28;20071;-67
2022/07/29 09:54:39;;;;;;;6.30;2.22;;;;;;;;;;5072975;28;20032;-75
2022/07/29 09:57:06;;;;;;;4.25;2.00;;;;;;;;;;5078955;28;20019;-74
2022/07/29 09:59:32;;;;;;;5.97;1.92;;;;;;;;;;5061338;28;20031;-67
2022/07/29 10:01:59;;;;;;;6.18;2.25;;;;;;;;;;5066469;28;20036;-67
2022/07/29 10:04:36;;;;;;;4.35;2.20;;;;;;;;;;5081621;28;20028;-67
2022/07/29 10:07:04;;;;;;;8.30;2.20;;;;;;;;;;5078626;28;20044;-67
2022/07/29 10:09:34;;;;;;;2.95;1.40;;;;;;;;;;5078204;28;20557;-67
2022/07/29 10:12:13;;;;;;;3.47;1.67;;;;;;;;;;5059359;28;20021;-67
2022/07/29 10:14:39;;;;;;;3.30;2.08;;;;;;;;;;5078774;28;20508;-67
2022/07/29 10:17:07;;;;;;;5.93;2.00;;;;;;;;;;5085054;28;20385;-67
2022/07/29 10:19:34;;;;;;;5.32;1.92;;;;;;;;;;5086807;28;20464;-66
2022/07/29 10:22:00;;;;;;;4.13;1.58;;;;;;;;;;5084063;28;20016;-67
2022/07/29 10:24:28;;;;;;;3.40;1.73;;;;;;;;;;5088472;28;20093;-67
2022/07/29 10:26:55;;;;;;;4.53;1.80;;;;;;;;;;5092581;28;20032;-67
2022/07/29 10:29:21;;;;;;;3.95;1.50;;;;;;;;;;5077538;28;20499;-67
2022/07/29 10:32:02;;;;;;;5.20;2.08;;;;;;;;;;5090161;28;20024;-66
2022/07/29 10:34:34;;;;;;;5.60;1.67;;;;;;;;;;5083269;28;20028;-67
2022/07/29 10:37:08;;;;;;;9.02;1.88;;;;;;;;;;5083753;28;20025;-67
2022/07/29 10:39:52;;;;;;;3.90;1.65;;;;;;;;;;5088094;28;20521;-67
2022/07/29 10:42:24;;;;;;;4.55;1.48;;;;;;;;;;5091029;28;20028;-67
2022/07/29 10:44:50;;;;;;;2.55;1.30;;;;;;;;;;5088482;28;20032;-67
2022/07/29 10:47:24;;;;;;;5.38;1.85;;;;;;;;;;5090789;28;20051;-67
2022/07/29 10:49:59;;;;;;;4.85;1.50;;;;;;;;;;5087507;28;20113;-67
2022/07/29 10:52:46;;;;;;;2.90;1.50;;;;;;;;;;5081644;28;20040;-67
2022/07/29 10:55:31;;;;;;;4.93;1.27;;;;;;;;;;5085972;28;20032;-67
2022/07/29 10:58:16;;;;;;;4.60;1.38;;;;;;;;;;5086434;28;20478;-67
2022/07/29 11:00:42;;;;;;;6.45;1.33;;;;;;;;;;5082265;28;20111;-67
2022/07/29 11:03:08;;;;;;;4.47;1.67;;;;;;;;;;5061834;28;20031;-67
2022/07/29 11:05:54;;;;;;;3.65;1.30;;;;;;;;;;5090517;28;20513;-67
2022/07/29 11:08:23;;;;;;;6.18;1.35;;;;;;;;;;5064586;28;20113;-67
2022/07/29 11:10:49;;;;;;;2.78;1.20;;;;;;;;;;5080988;28;20039;-67
2022/07/29 11:13:34;;;;;;;6.72;1.70;;;;;;;;;;5064150;28;20063;-67
2022/07/29 11:16:00;;;;;;;2.70;1.38;;;;;;;;;;5075264;28;20052;-67
2022/07/29 11:18:27;;;;;;;2.67;1.10;;;;;;;;;;5079831;28;20107;-67
2022/07/29 11:20:53;;;;;;;2.85;1.08;;;;;;;;;;5074124;28;20407;-66
2022/07/29 11:23:21;;;;;;;3.38;1.20;;;;;;;;;;5083273;28;20039;-67
2022/07/29 11:26:07;;;;;;;3.63;1.20;;;;;;;;;;5081891;28;20086;-67
2022/07/29 11:28:34;;;;;;;6.05;0.95;;;;;;;;;;5092805;28;20034;-67
2022/07/29 11:31:01;;;;;;;3.33;1.23;;;;;;;;;;5081644;28;20028;-67
2022/07/29 11:33:31;;;;;;;3.75;1.35;;;;;;;;;;5080491;28;20047;-67
2022/07/29 11:36:10;;;;;;;2.10;1.33;;;;;;;;;;5089914;28;20359;-67
2022/07/29 11:38:37;;;;;;;2.45;1.00;;;;;;;;;;5088405;28;20024;-67
2022/07/29 11:41:25;;;;;;;2.42;1.02;;;;;;;;;;5094591;28;20064;-67
2022/07/29 11:43:52;;;;;;;2.70;1.20;;;;;;;;;;5088644;28;20028;-67
2022/07/29 11:46:37;;;;;;;4.22;1.23;;;;;;;;;;5084299;28;20020;-67
2022/07/29 11:49:04;;;;;;;2.20;1.08;;;;;;;;;;5091205;28;20442;-67
2022/07/29 11:51:30;;;;;;;2.88;1.30;;;;;;;;;;5090478;28;20028;-67
2022/07/29 11:53:58;;;;;;;7.28;1.40;;;;;;;;;;5091142;28;20043;-67
2022/07/29 11:56:26;;;;;;;4.65;1.40;;;;;;;;;;5088453;28;20025;-67
2022/07/29 11:59:03;;;;;;;2.17;1.40;;;;;;;;;;5091611;28;20020;-69
2022/07/29 12:01:30;;;;;;;4.88;1.58;;;;;;;;;;5083810;28;20024;-68
2022/07/29 12:04:03;;;;;;;5.60;1.58;;;;;;;;;;5083414;28;20067;-68
2022/07/29 12:06:29;;;;;;;3.20;1.20;;;;;;;;;;5084206;28;20040;-69
2022/07/29 12:08:55;;;;;;;3.17;1.02;;;;;;;;;;5084845;28;20020;-68
2022/07/29 12:11:22;;;;;;;3.85;1.20;;;;;;;;;;5081780;28;20052;-67
2022/07/29 12:13:48;;;;;;;2.13;1.10;;;;;;;;;;5083106;28;20020;-67
2022/07/29 12:16:14;;;;;;;1.63;0.90;;;;;;;;;;5091191;28;20455;-67
2022/07/29 12:18:41;;;;;;;1.83;1.10;;;;;;;;;;5088969;28;20539;-67
2022/07/29 12:21:08;;;;;;;1.35;0.75;;;;;;;;;;5070117;28;20032;-67
2022/07/29 12:23:34;;;;;;;1.90;0.90;;;;;;;;;;5076018;28;20024;-67
2022/07/29 12:26:01;;;;;;;2.20;1.10;;;;;;;;;;5080456;28;20025;-68
2022/07/29 12:28:27;;;;;;;3.88;1.45;;;;;;;;;;5089150;28;20469;-67
2022/07/29 12:30:53;;;;;;;1.70;1.00;;;;;;;;;;5088206;28;20019;-68
2022/07/29 12:33:21;;;;;;;1.55;0.90;;;;;;;;;;5067886;28;20422;-68
2022/07/29 12:35:49;;;;;;;3.40;1.10;;;;;;;;;;5088460;28;20020;-67
2022/07/29 12:38:15;;;;;;;4.00;1.10;;;;;;;;;;5088748;28;20020;-68
2022/07/29 12:40:41;;;;;;;4.38;1.27;;;;;;;;;;5089489;28;20506;-68
2022/07/29 12:43:13;;;;;;;2.95;1.05;;;;;;;;;;5087463;28;20062;-67
2022/07/29 12:45:41;;;;;;;3.47;1.00;;;;;;;;;;5086388;28;20384;-68
2022/07/29 12:48:10;;;;;;;4.63;1.15;;;;;;;;;;5089466;28;20126;-68
2022/07/29 12:50:55;;;;;;;1.67;1.00;;;;;;;;;;5087996;28;20025;-68
2022/07/29 12:53:21;;;;;;;2.65;0.90;;;;;;;;;;5089724;28;20032;-67
2022/07/29 12:55:51;;;;;;;1.95;1.20;;;;;;;;;;5084862;28;20103;-68
2022/07/29 12:58:32;;;;;;;1.35;0.80;;;;;;;;;;5079077;28;20073;-68
2022/07/29 13:01:02;;;;;;;2.90;1.02;;;;;;;;;;5087628;28;20032;-68
2022/07/29 13:03:29;;;;;;;7.63;1.25;;;;;;;;;;5078373;28;20028;-67
2022/07/29 13:05:55;;;;;;;2.67;0.80;;;;;;;;;;5089447;28;20028;-68
2022/07/29 13:08:21;;;;;;;1.85;0.90;;;;;;;;;;5080212;28;20052;-69
2022/07/29 13:10:47;;;;;;;3.53;0.90;;;;;;;;;;5089137;28;20464;-67
2022/07/29 13:13:15;;;;;;;1.33;0.77;;;;;;;;;;5084518;28;20232;-67
2022/07/29 13:15:46;;;;;;;2.88;1.23;;;;;;;;;;5080606;28;20040;-68
2022/07/29 13:18:32;;;;;;;0.88;0.70;;;;;;;;;;5087310;28;20037;-67
2022/07/29 13:21:10;;;;;;;2.53;0.88;;;;;;;;;;5088582;28;20368;-68
2022/07/29 13:23:36;;;;;;;4.75;0.80;;;;;;;;;;5082263;28;20062;-68
2022/07/29 13:26:07;;;;;;;3.42;0.98;;;;;;;;;;5084476;28;20028;-67
2022/07/29 13:28:33;;;;;;;3.42;1.00;;;;;;;;;;5082622;28;20084;-67
2022/07/29 13:31:00;;;;;;;3.67;0.90;;;;;;;;;;5083353;28;20020;-67
2022/07/29 13:33:26;;;;;;;1.50;1.00;;;;;;;;;;5085189;28;20031;-67
2022/07/29 13:35:52;;;;;;;3.65;1.00;;;;;;;;;;5094352;28;20024;-67
2022/07/29 13:38:18;;;;;;;2.28;0.95;;;;;;;;;;5050679;28;20488;-69
2022/07/29 13:40:45;;;;;;;4.00;1.25;;;;;;;;;;5093221;28;20027;-67
2022/07/29 13:43:11;;;;;;;3.88;0.93;;;;;;;;;;5088843;28;20405;-67
2022/07/29 13:45:37;;;;;;;5.03;1.00;;;;;;;;;;5096047;28;20024;-67
2022/07/29 13:48:03;;;;;;;5.57;1.20;;;;;;;;;;5088224;28;20032;-67
2022/07/29 13:50:30;;;;;;;3.35;1.08;;;;;;;;;;5087651;28;20040;-67
2022/07/29 13:52:56;;;;;;;4.82;1.20;;;;;;;;;;5090603;28;20020;-67
2022/07/29 13:55:22;;;;;;;3.38;1.10;;;;;;;;;;5086138;28;20099;-67
2022/07/29 13:57:48;;;;;;;3.30;1.10;;;;;;;;;;5089269;28;20030;-67
2022/07/29 14:00:15;;;;;;;1.58;1.00;;;;;;;;;;5089186;28;20020;-67
2022/07/29 14:02:41;;;;;;;3.47;1.17;;;;;;;;;;5083318;28;20082;-67
2022/07/29 14:05:09;;;;;;;2.38;0.90;;;;;;;;;;5084374;28;20460;-67
2022/07/29 14:07:35;;;;;;;2.85;1.10;;;;;;;;;;5076441;28;20081;-67
2022/07/29 14:10:01;;;;;;;2.25;0.93;;;;;;;;;;5091280;28;20020;-67
2022/07/29 14:12:27;;;;;;;5.28;1.25;;;;;;;;;;5084805;28;20426;-68
2022/07/29 14:14:53;;;;;;;4.13;0.95;;;;;;;;;;5089868;28;20048;-68
2022/07/29 14:17:20;;;;;;;2.55;1.20;;;;;;;;;;5089673;28;20085;-68
2022/07/29 14:19:46;;;;;;;3.50;1.30;;;;;;;;;;5084200;28;20063;-68
2022/07/29 14:22:12;;;;;;;5.60;1.27;;;;;;;;;;5092538;28;20020;-68
2022/07/29 14:24:38;;;;;;;1.80;0.95;;;;;;;;;;5089869;28;20063;-68
2022/07/29 14:27:05;;;;;;;2.83;1.17;;;;;;;;;;5091988;28;20038;-68
2022/07/29 14:29:31;;;;;;;1.80;0.90;;;;;;;;;;5088092;28;20480;-68
2022/07/29 14:31:58;;;;;;;2.95;1.20;;;;;;;;;;5086141;28;20029;-67
2022/07/29 14:34:24;;;;;;;2.38;0.95;;;;;;;;;;5090702;28;20102;-67
2022/07/29 14:36:53;;;;;;;3.33;1.23;;;;;;;;;;5087017;28;20111;-67
2022/07/29 14:39:19;;;;;;;1.70;1.00;;;;;;;;;;5092157;28;20099;-68
2022/07/29 14:41:45;;;;;;;5.53;1.08;;;;;;;;;;5086348;28;20028;-68
2022/07/29 14:44:12;;;;;;;1.73;0.85;;;;;;;;;;5091671;28;20068;-68
2022/07/29 14:46:38;;;;;;;2.58;0.95;;;;;;;;;;5091520;28;20031;-67
2022/07/29 14:49:05;;;;;;;3.65;1.40;;;;;;;;;;5082599;28;20082;-67
2022/07/29 14:51:31;;;;;;;4.70;1.38;;;;;;;;;;5087000;28;20414;-67
2022/07/29 14:53:57;;;;;;;2.47;1.55;;;;;;;;;;5084683;28;20031;-68
2022/07/29 14:56:24;;;;;;;3.05;1.10;;;;;;;;;;5089930;28;20027;-68
2022/07/29 14:58:50;;;;;;;3.40;1.70;;;;;;;;;;5100086;28;20484;-68